Lanesboro, Massachusetts
Current Conditions -  °F | °C
As of 11:54 AM on Tuesday 27 Jan 2015 (Local Time) from KPSF Reporting Station
Light Snow Light Snow  
Wind Chill: -8°   Ceiling: 1700
Heat Index:   Visibility: 1mi
Dew Point:   Wind: 16mph
Humidity: 77%   Direction: 320°NW
Pressure: 29.63"   Gusts: 24mph
Location:  42.51°N, 73.24°W
Report Text: KPSF 271654Z AUTO 32014G21KT 1SM -SN VV017 M13/M16 A2963 RMK AO2 SLP060 P0000 T11281161
Loading
Personal Weather Stations






























Interactive Weather Map New forecast layout! Learn more

10-Day Weather Forecast

Advertisements
Track Severe Weather on mobile